Oscoda, MI

3:42 AM EST on December 08, 2019 (GMT -0500)
Oscoda-Wurtsmith

Weather History for KOSC - October, 2019

Change the Weather History Date:

Tuesday, October 22, 2019

  Actual Average Record
Temperature  
Mean Temperature 52 °F -  
Max Temperature 57 °F 51 °F 76 °F (2017)
Min Temperature 45 °F 36 °F 24 °F (2008)
Degree Days  
Heating Degree Days 14    
Growing Degree Days 2 (Base 50)    
Moisture  
Dew Point 45 °F    
Average Humidity 77    
Maximum Humidity 95    
Minimum Humidity 56    
Precipitation  
Precipitation 0.00 in - - ()
Sea Level Pressure  
Sea Level Pressure 29.54 in    
Wind  
Wind Speed 11 mph ()    
Max Wind Speed 26 mph    
Max Gust Speed 40 mph    
Visibility 9.9 miles    
Events Rain    
Averages and records for this station are not official NWS values.
T = Trace of Precipitation, MM = Missing Value Source: Averaged Metar Reports

Daily Weather History Graph

Daily Weather History Graph

Search for Another Location

Airport or City:

Astronomy

Oct. 22, 2019 Rise Set
Actual Time 7:57 AM EDT 6:37 PM EDT
Civil Twilight 7:27 AM EDT 7:07 PM EDT
Nautical Twilight 6:53 AM EDT 7:41 PM EDT
Astronomical Twilight 6:20 AM EDT 8:15 PM EDT
Moon 12:46 AM EDT (10/22) 4:04 PM EDT (10/22)
Length of Visible Light 11h 39m
Length of Day
10h 40m
Last Quarter, 37% of the Moon is Illuminated
Oct 22
Last Quarter
Oct 27
New
Nov 4
First Quarter
Nov 12
Full
Nov 19
Last Quarter

Hourly Weather History & Observations

Time (EDT) Temp. Windchill Dew Point Humidity Pressure Visibility Wind Dir Wind Speed Gust Speed Precip Events Conditions
12:17 AM 57.2 °F - 55.2 °F 93% 29.56 in 10.0 mi South 5.8 mph - N/A   Overcast
12:35 AM 57.4 °F - 55.6 °F 94% 29.56 in 10.0 mi South 6.9 mph - N/A   Overcast
12:36 AM 57.4 °F - 55.6 °F 94% 29.56 in 10.0 mi South 5.8 mph - N/A   Overcast
12:55 AM 57.6 °F - 54.7 °F 90% 29.56 in 10.0 mi South 8.1 mph - N/A   Overcast
12:56 AM 57.6 °F - 54.7 °F 90% 29.56 in 10.0 mi South 8.1 mph - N/A   Overcast
1:15 AM 57.0 °F - 53.6 °F 88% 29.56 in 10.0 mi SSW 5.8 mph - N/A   Overcast
1:20 AM 56.5 °F - 53.4 °F 89% 29.55 in 10.0 mi South 5.8 mph - N/A   Overcast
1:38 AM 56.3 °F - 53.6 °F 91% 29.56 in 10.0 mi South 6.9 mph - N/A   Overcast
1:56 AM 55.9 °F - 54.0 °F 93% 29.56 in 10.0 mi SSW 8.1 mph - N/A   Scattered Clouds
2:15 AM 55.9 °F - 54.5 °F 95% 29.56 in 10.0 mi South 9.2 mph - N/A   Mostly Cloudy
2:35 AM 56.3 °F - 54.7 °F 94% 29.56 in 10.0 mi SSW 8.1 mph - N/A   Overcast
2:36 AM 56.3 °F - 54.7 °F 94% 29.56 in 10.0 mi SSW 8.1 mph - N/A   Overcast
2:59 AM 56.3 °F - 54.7 °F 94% 29.56 in 10.0 mi SSW 9.2 mph - N/A   Overcast
3:17 AM 56.3 °F - 54.0 °F 92% 29.55 in 10.0 mi South 8.1 mph - N/A   Overcast
3:35 AM 56.3 °F - 52.0 °F 85% 29.56 in 10.0 mi South 9.2 mph - N/A   Overcast
3:36 AM 56.3 °F - 51.8 °F 85% 29.56 in 10.0 mi South 8.1 mph - N/A   Overcast
3:55 AM 55.2 °F - 50.0 °F 83% 29.56 in 10.0 mi South 9.2 mph - N/A   Overcast
3:56 AM 55.0 °F - 50.0 °F 83% 29.56 in 10.0 mi South 9.2 mph - N/A   Mostly Cloudy
4:15 AM 54.0 °F - 48.7 °F 82% 29.56 in 10.0 mi South 6.9 mph - N/A   Scattered Clouds
4:20 AM 53.4 °F - 48.6 °F 84% 29.56 in 10.0 mi SSW 6.9 mph - N/A   Scattered Clouds
4:38 AM 52.7 °F - 49.1 °F 88% 29.55 in 10.0 mi South 6.9 mph - N/A   Clear
4:56 AM 52.0 °F - 48.7 °F 89% 29.55 in 10.0 mi South 9.2 mph - N/A   Clear
5:15 AM 51.8 °F - 48.6 °F 89% 29.55 in 10.0 mi South 8.1 mph - N/A   Clear
5:16 AM 51.8 °F - 48.6 °F 89% 29.55 in 10.0 mi South 8.1 mph - N/A   Clear
5:35 AM 51.4 °F - 48.4 °F 89% 29.55 in 10.0 mi South 8.1 mph - N/A   Clear
5:36 AM 51.4 °F - 48.4 °F 89% 29.55 in 10.0 mi South 8.1 mph - N/A   Clear
5:59 AM 51.3 °F - 46.9 °F 85% 29.55 in 10.0 mi SSW 9.2 mph - N/A   Scattered Clouds
6:17 AM 50.7 °F - 46.2 °F 85% 29.55 in 10.0 mi South 5.8 mph - N/A   Clear
6:35 AM 50.4 °F - 46.0 °F 85% 29.55 in 10.0 mi South 5.8 mph - N/A   Clear
6:55 AM 50.2 °F - 45.7 °F 85% 29.54 in 10.0 mi South 8.1 mph - N/A   Clear
6:56 AM 50.2 °F - 45.7 °F 85% 29.54 in 10.0 mi South 6.9 mph - N/A   Clear
7:15 AM 49.1 °F - 45.0 °F 86% 29.54 in 10.0 mi South 4.6 mph - N/A   Clear
7:20 AM 49.1 °F - 45.1 °F 86% 29.53 in 10.0 mi South 5.8 mph - N/A   Clear
7:38 AM 49.1 °F - 45.5 °F 87% 29.53 in 10.0 mi South 6.9 mph - N/A   Clear
7:56 AM 49.8 °F - 45.0 °F 83% 29.53 in 10.0 mi South 9.2 mph - N/A   Clear
8:15 AM 50.7 °F - 44.6 °F 80% 29.54 in 10.0 mi South 13.8 mph 19.6 mph N/A   Clear
8:35 AM 51.8 °F - 43.9 °F 74% 29.53 in 10.0 mi South 15.0 mph 20.7 mph N/A   Clear
8:59 AM 52.5 °F - 44.1 °F 73% 29.53 in 10.0 mi South 19.6 mph 24.2 mph N/A   Clear
9:17 AM 53.1 °F - 44.2 °F 72% 29.53 in 10.0 mi SSW 16.1 mph 25.3 mph N/A   Clear
9:35 AM 53.6 °F - 44.6 °F 72% 29.51 in 10.0 mi South 16.1 mph 27.6 mph N/A   Clear
9:36 AM 53.6 °F - 44.6 °F 72% 29.52 in 10.0 mi South 16.1 mph 24.2 mph N/A   Clear
9:55 AM 53.8 °F - 44.6 °F 71% 29.51 in 10.0 mi SSW 18.4 mph 29.9 mph N/A   Clear
10:15 AM 54.3 °F - 44.4 °F 69% 29.51 in 10.0 mi SSW 19.6 mph 28.8 mph N/A   Scattered Clouds
10:38 AM 54.5 °F - 44.1 °F 68% 29.50 in 10.0 mi South 19.6 mph 32.2 mph N/A   Mostly Cloudy
10:56 AM 55.0 °F - 43.7 °F 66% 29.50 in 10.0 mi South 21.9 mph 31.1 mph N/A   Mostly Cloudy
11:15 AM 55.4 °F - 43.3 °F 64% 29.49 in 10.0 mi SSW 23.0 mph 32.2 mph N/A   Scattered Clouds
11:16 AM 55.4 °F - 43.2 °F 63% 29.49 in 10.0 mi SSW 23.0 mph 32.2 mph N/A   Scattered Clouds
11:35 AM 56.3 °F - 43.7 °F 63% 29.49 in 10.0 mi South 20.7 mph 32.2 mph N/A   Scattered Clouds
11:59 AM 55.6 °F - 43.0 °F 63% 29.49 in 10.0 mi South 26.5 mph 40.3 mph N/A   Mostly Cloudy
12:17 PM 56.8 °F - 43.7 °F 61% 29.48 in 10.0 mi SSW 21.9 mph 32.2 mph N/A   Overcast
12:35 PM 56.5 °F - 43.2 °F 61% 29.48 in 10.0 mi SSW 19.6 mph 32.2 mph N/A   Overcast
12:36 PM 56.3 °F - 43.2 °F 61% 29.48 in 10.0 mi SSW 19.6 mph 32.2 mph N/A   Overcast
12:55 PM 56.1 °F - 42.8 °F 61% 29.48 in 10.0 mi SSW 19.6 mph 34.5 mph N/A   Overcast
1:15 PM 56.8 °F - 41.4 °F 56% 29.48 in 10.0 mi SSW 24.2 mph 31.1 mph N/A   Overcast
1:38 PM 55.9 °F - 40.3 °F 56% 29.47 in 10.0 mi SSW 23.0 mph 33.4 mph N/A   Overcast
1:56 PM 55.6 °F - 40.6 °F 57% 29.47 in 10.0 mi SSW 20.7 mph 28.8 mph N/A   Overcast
2:15 PM 54.7 °F - 40.1 °F 58% 29.48 in 10.0 mi SSW 26.5 mph 40.3 mph N/A   Overcast
2:35 PM 54.9 °F - 40.3 °F 58% 29.48 in 10.0 mi SSW 25.3 mph 33.4 mph N/A   Overcast
2:59 PM 54.5 °F - 41.0 °F 60% 29.48 in 10.0 mi SSW 16.1 mph 31.1 mph N/A   Overcast
3:17 PM 53.6 °F - 41.0 °F 62% 29.49 in 10.0 mi SSW 23.0 mph 32.2 mph N/A   Overcast
3:35 PM 52.5 °F - 43.2 °F 70% 29.50 in 7.0 mi SSW 20.7 mph 29.9 mph N/A Rain Light Rain
3:36 PM 52.2 °F - 43.3 °F 72% 29.50 in 7.0 mi SSW 19.6 mph 29.9 mph N/A Rain Light Rain
3:55 PM 51.8 °F - 42.6 °F 71% 29.51 in 10.0 mi SSW 19.6 mph 36.8 mph N/A   Overcast
4:15 PM 52.3 °F - 41.5 °F 67% 29.51 in 10.0 mi SSW 20.7 mph 29.9 mph N/A   Overcast
4:38 PM 52.7 °F - 41.4 °F 65% 29.52 in 10.0 mi SW 18.4 mph 27.6 mph N/A   Overcast
4:56 PM 52.5 °F - 42.1 °F 68% 29.52 in 10.0 mi SSW 20.7 mph 31.1 mph N/A   Overcast
5:15 PM 51.8 °F - 42.3 °F 70% 29.53 in 10.0 mi SSW 17.3 mph 25.3 mph N/A   Overcast
5:16 PM 51.8 °F - 42.3 °F 70% 29.53 in 10.0 mi SSW 19.6 mph 25.3 mph N/A   Overcast
5:35 PM 51.4 °F - 41.9 °F 70% 29.53 in 10.0 mi SW 20.7 mph 26.5 mph N/A   Overcast
5:59 PM 50.7 °F - 42.8 °F 74% 29.54 in 10.0 mi SSW 19.6 mph 24.2 mph N/A   Overcast
6:17 PM 50.2 °F - 42.3 °F 74% 29.55 in 10.0 mi SW 18.4 mph 21.9 mph N/A   Overcast
6:35 PM 50.0 °F - 41.9 °F 74% 29.55 in 10.0 mi SSW 16.1 mph 21.9 mph N/A   Overcast
6:36 PM 50.0 °F - 41.9 °F 74% 29.55 in 10.0 mi SSW 16.1 mph 21.9 mph N/A   Overcast
6:55 PM 49.8 °F - 41.5 °F 73% 29.56 in 10.0 mi SW 16.1 mph 21.9 mph N/A   Overcast
7:15 PM 50.0 °F - 41.0 °F 71% 29.57 in 10.0 mi SSW 17.3 mph 26.5 mph N/A   Overcast
7:20 PM 49.8 °F - 41.0 °F 72% 29.57 in 10.0 mi SW 13.8 mph 26.5 mph N/A   Overcast
7:38 PM 49.5 °F - 40.8 °F 72% 29.58 in 10.0 mi SW 16.1 mph 19.6 mph N/A   Overcast
7:56 PM 49.3 °F - 40.6 °F 72% 29.58 in 10.0 mi SW 17.3 mph 23.0 mph N/A   Overcast
8:15 PM 49.1 °F - 41.0 °F 74% 29.59 in 10.0 mi SW 15.0 mph 21.9 mph N/A   Overcast
8:35 PM 49.1 °F - 41.2 °F 74% 29.59 in 10.0 mi SW 17.3 mph 20.7 mph N/A   Overcast
8:59 PM 49.1 °F - 41.0 °F 74% 29.60 in 10.0 mi SSW 12.7 mph 20.7 mph N/A   Overcast
9:17 PM 48.6 °F - 41.0 °F 75% 29.60 in 10.0 mi SW 13.8 mph 23.0 mph N/A   Overcast
9:35 PM 48.2 °F - 41.0 °F 76% 29.60 in 10.0 mi SSW 13.8 mph 21.9 mph N/A   Overcast
9:55 PM 48.2 °F - 41.0 °F 76% 29.60 in 10.0 mi SSW 13.8 mph 19.6 mph N/A   Overcast
10:15 PM 47.8 °F - 40.6 °F 76% 29.61 in 10.0 mi SW 13.8 mph 21.9 mph N/A   Overcast
10:20 PM 47.7 °F - 40.6 °F 77% 29.61 in 10.0 mi SSW 13.8 mph - N/A   Overcast
10:38 PM 47.5 °F - 40.8 °F 78% 29.61 in 10.0 mi SSW 16.1 mph - N/A   Overcast
10:56 PM 47.3 °F - 40.6 °F 78% 29.62 in 10.0 mi SSW 15.0 mph 20.7 mph N/A   Overcast
11:15 PM 46.9 °F - 41.0 °F 80% 29.62 in 10.0 mi SSW 12.7 mph 18.4 mph N/A   Overcast
11:35 PM 46.6 °F - 40.3 °F 79% 29.62 in 10.0 mi SW 15.0 mph 23.0 mph N/A   Overcast
11:59 PM 45.7 °F 39.5 °F 39.6 °F 79% 29.62 in 10.0 mi SW 13.8 mph 20.7 mph N/A   Mostly Cloudy